Time;durP1;ratioP1;P1;durP2;ratioP2;P2;SDS_P1;SDS_P2;PMS_P1;PMS_P2;Temp;Humidity;BMP_temperature;BMP_pressure;BME280_temperature;BME280_humidity;BME280_pressure;Samples;Min_cycle;Max_cycle;Signal;HPM_P1;HPM_P2
2021/10/29 00:01:10;;;;;;;;;72.25;57.75;;;;;12.50;74.93;102204.50;4935835;29;11581;-70
2021/10/29 00:04:06;;;;;;;;;64.25;53.25;;;;;12.53;74.72;102203.88;4935795;29;12443;-70
2021/10/29 00:07:02;;;;;;;;;70.00;56.50;;;;;12.64;74.44;102196.16;4935939;29;11545;-70
2021/10/29 00:09:58;;;;;;;;;67.25;54.00;;;;;12.63;74.44;102200.06;4935692;29;11583;-70
2021/10/29 00:12:55;;;;;;;;;69.25;56.00;;;;;12.66;74.46;102187.56;4922801;29;12378;-70
2021/10/29 00:15:51;;;;;;;;;68.75;57.50;;;;;12.63;74.81;102205.63;4935818;29;11580;-70
2021/10/29 00:18:46;;;;;;;;;73.00;59.00;;;;;12.67;74.89;102195.56;4935520;29;11558;-71
2021/10/29 00:21:42;;;;;;;;;68.00;56.50;;;;;12.71;74.68;102195.75;4922019;29;11575;-70
2021/10/29 00:24:38;;;;;;;;;69.50;55.75;;;;;12.68;74.81;102205.53;4935375;29;11708;-70
2021/10/29 00:27:34;;;;;;;;;64.75;53.00;;;;;12.77;74.43;102203.69;4922993;29;11559;-70
2021/10/29 00:30:29;;;;;;;;;66.50;55.25;;;;;12.77;74.67;102208.41;4922995;29;11555;-70
2021/10/29 00:33:25;;;;;;;;;66.75;53.50;;;;;12.72;74.92;102205.72;4935819;29;11575;-70
2021/10/29 00:36:20;;;;;;;;;66.00;54.00;;;;;12.77;74.60;102211.19;4934560;29;11557;-70
2021/10/29 00:39:16;;;;;;;;;64.25;52.25;;;;;12.80;74.53;102210.56;4935300;29;11561;-70
2021/10/29 00:41:44;;;;;;;;;65.25;53.00;;;;;12.77;74.76;102208.41;4936229;29;11567;-70
2021/10/29 00:44:40;;;;;;;;;66.25;54.75;;;;;12.83;74.42;102215.50;4922391;29;11690;-70
2021/10/29 00:47:36;;;;;;;;;60.75;51.50;;;;;12.74;74.95;102212.63;4935374;29;11582;-70
2021/10/29 00:50:31;;;;;;;;;63.50;52.50;;;;;12.84;74.52;102221.88;4934823;29;11677;-70
2021/10/29 00:53:27;;;;;;;;;66.50;54.25;;;;;12.87;74.33;102212.94;4935314;29;11614;-70
2021/10/29 00:56:23;;;;;;;;;66.25;54.00;;;;;12.79;74.79;102206.97;4934363;29;11542;-70
2021/10/29 00:59:19;;;;;;;;;64.75;52.75;;;;;12.88;74.38;102212.63;4934961;29;11664;-70
2021/10/29 01:02:15;;;;;;;;;60.50;50.50;;;;;12.88;74.33;102215.41;4935215;29;11677;-71
2021/10/29 01:05:11;;;;;;;;;63.75;53.00;;;;;12.80;74.85;102213.34;4922478;29;11543;-70
2021/10/29 01:08:09;;;;;;;;;66.50;53.25;;;;;12.80;75.05;102205.84;4922082;29;11742;-70
2021/10/29 01:11:06;;;;;;;;;60.25;50.25;;;;;12.90;74.82;102204.81;4934917;29;11552;-70
2021/10/29 01:13:48;;;;;;;;;66.50;55.00;;;;;12.97;74.59;102215.50;4935906;29;11613;-71
2021/10/29 01:16:43;;;;;;;;;73.25;58.00;;;;;12.92;74.46;102207.28;4934687;29;12315;-70
2021/10/29 01:19:40;;;;;;;;;72.50;58.75;;;;;12.88;74.86;102209.88;4915594;29;12459;-70
2021/10/29 01:22:36;;;;;;;;;73.00;58.25;;;;;12.86;74.71;102214.06;4915898;29;11567;-70
2021/10/29 01:25:32;;;;;;;;;68.50;53.50;;;;;12.81;74.89;102209.44;4919803;29;11554;-70
2021/10/29 01:28:28;;;;;;;;;79.50;61.00;;;;;12.83;74.33;102211.91;4934064;29;11656;-70
2021/10/29 01:31:23;;;;;;;;;76.50;60.25;;;;;12.80;74.14;102205.84;4934624;29;12453;-70
2021/10/29 01:34:19;;;;;;;;;81.50;63.75;;;;;12.53;74.34;102206.66;4934662;29;11542;-70
2021/10/29 01:37:15;;;;;;;;;80.25;68.25;;;;;12.38;74.47;102206.13;4934592;29;12382;-70
2021/10/29 01:40:14;;;;;;;;;98.50;85.50;;;;;12.23;74.63;102202.50;4934446;29;11591;-70
2021/10/29 01:42:42;;;;;;;;;95.00;83.00;;;;;12.08;74.46;102210.28;4935583;29;11594;-70
2021/10/29 01:45:37;;;;;;;;;107.33;95.00;;;;;11.92;75.56;102202.22;4934056;29;11565;-70
2021/10/29 01:48:34;;;;;;;;;100.67;89.33;;;;;11.88;74.90;102214.22;4934282;29;11598;-70
2021/10/29 01:51:30;;;;;;;;;112.33;97.67;;;;;11.68;75.71;102207.03;4934697;29;12381;-70
2021/10/29 01:54:26;;;;;;;;;99.33;92.67;;;;;11.79;74.86;102222.38;4935265;29;11611;-70
2021/10/29 01:57:21;;;;;;;;;109.00;94.67;;;;;11.80;75.79;102215.72;4934350;29;11609;-70
2021/10/29 02:00:17;;;;;;;;;116.67;103.67;;;;;11.79;77.53;102214.06;4934373;29;11611;-70
2021/10/29 02:03:13;;;;;;;;;100.00;87.67;;;;;11.77;78.28;102204.41;4935433;29;8921;-70
2021/10/29 02:06:08;;;;;;;;;105.00;91.67;;;;;11.62;78.54;102217.38;4938194;29;8918;-69
2021/10/29 02:09:04;;;;;;;;;114.33;94.00;;;;;11.66;77.70;102226.75;4937924;29;11607;-70
2021/10/29 02:12:00;;;;;;;;;123.33;103.00;;;;;11.59;77.39;102231.03;4937969;29;8917;-70
2021/10/29 02:14:28;;;;;;;;;116.67;98.67;;;;;11.64;76.47;102239.25;4939068;29;8985;-70
2021/10/29 02:17:26;;;;;;;;;108.00;94.00;;;;;11.57;76.67;102238.78;4938326;29;8866;-70
2021/10/29 02:20:21;;;;;;;;;109.00;98.67;;;;;11.50;79.10;102246.66;4937695;29;11578;-70
2021/10/29 02:22:49;;;;;;;;;113.33;94.67;;;;;11.58;78.02;102237.69;4938808;29;8889;-70
2021/10/29 02:25:46;;;;;;;;;100.25;89.50;;;;;11.51;79.24;102251.09;4937688;29;12338;-70
2021/10/29 02:28:41;;;;;;;;;101.50;87.00;;;;;11.51;77.87;102251.91;4937563;29;11568;-71
2021/10/29 02:31:39;;;;;;;;;93.25;79.50;;;;;11.57;76.80;102255.41;4937956;29;11623;-70
2021/10/29 02:34:35;;;;;;;;;99.25;82.25;;;;;11.32;76.43;102254.66;4937473;29;12527;-70
2021/10/29 02:37:31;;;;;;;;;96.25;81.50;;;;;11.22;76.57;102260.34;4937353;29;12381;-70
2021/10/29 02:40:26;;;;;;;;;113.67;103.00;;;;;11.23;76.99;102262.00;4924589;29;11627;-70
2021/10/29 02:43:22;;;;;;;;;112.33;99.00;;;;;11.07;77.27;102266.91;4937812;29;8838;-70
2021/10/29 02:46:18;;;;;;;;;126.33;115.33;;;;;11.21;78.22;102266.19;4924890;29;11600;-70
2021/10/29 02:49:13;;;;;;;;;188.67;140.67;;;;;11.26;79.34;102278.00;4937419;29;9695;-70
2021/10/29 02:52:09;;;;;;;;;186.33;145.00;;;;;11.25;80.93;102272.75;4938106;29;9069;-70
2021/10/29 02:55:05;;;;;;;;;162.33;130.67;;;;;11.31;81.25;102280.72;4936879;29;8842;-70
2021/10/29 02:58:01;;;;;;;;;180.00;137.33;;;;;11.37;80.94;102281.47;4924613;29;8953;-70
2021/10/29 03:00:57;;;;;;;;;127.00;111.67;;;;;11.34;81.45;102291.19;4937731;29;8842;-70
2021/10/29 03:03:53;;;;;;;;;151.00;123.00;;;;;11.35;82.41;102287.31;4937485;29;8834;-70
2021/10/29 03:06:48;;;;;;;;;100.33;85.00;;;;;11.28;82.60;102295.16;4937213;29;8874;-71
2021/10/29 03:09:16;;;;;;;;;130.33;97.33;;;;;11.33;82.47;102284.00;4937501;29;8869;-70
2021/10/29 03:12:11;;;;;;;;;103.50;86.25;;;;;11.24;83.24;102287.75;4936903;29;11626;-70
2021/10/29 03:15:09;;;;;;;;;92.50;81.00;;;;;11.28;82.93;102291.56;4923848;29;11587;-70
2021/10/29 03:17:38;;;;;;;;;80.75;63.00;;;;;11.23;84.06;102292.47;4920808;29;11608;-72
2021/10/29 03:20:34;;;;;;;;;84.25;68.25;;;;;11.29;83.45;102299.59;4936631;29;11570;-73
2021/10/29 03:23:30;;;;;;;;;86.00;69.00;;;;;11.32;83.33;102300.94;4936827;29;11571;-72
2021/10/29 03:26:26;;;;;;;;;83.75;67.25;;;;;11.23;83.81;102305.47;4936647;29;11579;-72
2021/10/29 03:28:53;;;;;;;;;81.50;70.00;;;;;11.13;84.29;102310.03;4937451;29;11578;-69
2021/10/29 03:31:49;;;;;;;;;96.00;92.00;;;;;11.12;84.98;102302.84;4935507;29;11668;-70
2021/10/29 03:34:45;;;;;;;;;89.33;80.67;;;;;11.14;84.70;102305.31;4936602;29;12467;-72
2021/10/29 03:40:47;;;;;;;;;89.67;78.67;;;;;11.15;84.86;102318.03;4934868;29;11655;-70
2021/10/29 03:43:49;;;;;;;;;88.75;74.00;;;;;11.23;83.55;102328.47;4936376;29;11581;-70
2021/10/29 03:46:46;;;;;;;;;91.25;78.00;;;;;11.10;84.74;102324.44;4935828;29;11548;-70
2021/10/29 03:49:54;;;;;;;;;89.50;77.25;;;;;11.17;84.17;102326.88;4936762;29;11688;-70
2021/10/29 03:53:25;;;;;;;;;88.75;76.00;;;;;11.08;84.85;102328.66;4935837;29;11564;-70
2021/10/29 03:56:11;;;;;;;;;92.75;77.25;;;;;11.02;83.50;102338.13;4935698;29;11654;-71
2021/10/29 03:59:07;;;;;;;;;85.00;63.25;;;;;10.96;84.51;102334.56;4935936;29;11573;-71
2021/10/29 04:02:06;;;;;;;;;77.25;62.75;;;;;10.94;85.86;102330.47;4936050;29;12276;-70
2021/10/29 04:05:01;;;;;;;;;78.00;61.75;;;;;10.97;85.72;102339.00;4936197;29;11558;-71
2021/10/29 04:07:57;;;;;;;;;81.25;64.00;;;;;10.85;86.68;102338.59;4922204;29;11553;-71
2021/10/29 04:10:55;;;;;;;;;79.75;64.00;;;;;10.86;86.36;102346.59;4934554;29;11651;-70
2021/10/29 04:13:51;;;;;;;;;75.00;59.00;;;;;10.83;86.76;102347.19;4932967;29;11539;-70
2021/10/29 04:16:47;;;;;;;;;81.00;62.75;;;;;10.92;86.37;102350.13;4919718;29;11577;-70
2021/10/29 04:19:42;;;;;;;;;75.75;59.50;;;;;10.92;86.08;102347.38;4921954;29;11637;-70
2021/10/29 04:22:32;;;;;;;;;75.00;59.50;;;;;10.96;86.10;102358.66;4935387;29;11593;-69
2021/10/29 04:25:00;;;;;;;;;75.00;59.25;;;;;10.83;86.25;102358.25;4935031;29;11579;-70
2021/10/29 04:28:01;;;;;;;;;78.50;62.50;;;;;10.93;86.03;102364.81;4935536;29;11562;-69
2021/10/29 04:30:59;;;;;;;;;80.00;64.00;;;;;10.85;86.84;102360.72;4921442;29;11532;-69
2021/10/29 04:33:56;;;;;;;;;75.00;58.75;;;;;10.94;86.21;102366.44;4934386;29;11525;-70
2021/10/29 04:36:56;;;;;;;;;75.50;61.00;;;;;10.98;86.09;102365.56;4931793;29;11584;-70
2021/10/29 04:39:52;;;;;;;;;74.75;60.75;;;;;11.03;85.71;102364.69;4935264;29;11615;-70
2021/10/29 04:42:47;;;;;;;;;73.75;59.25;;;;;11.11;84.98;102375.94;4935011;29;11595;-70
2021/10/29 04:45:16;;;;;;;;;78.25;61.75;;;;;11.21;84.27;102382.50;4935819;29;11567;-69
2021/10/29 04:47:44;;;;;;;;;76.00;62.00;;;;;11.07;84.24;102376.84;4936299;29;11626;-69
2021/10/29 04:50:12;;;;;;;;;76.00;61.50;;;;;11.02;84.08;102377.69;4918877;29;11591;-69
2021/10/29 04:52:40;;;;;;;;;79.50;63.25;;;;;11.03;84.22;102368.28;4936033;29;12296;-69
2021/10/29 04:55:09;;;;;;;;;77.00;61.50;;;;;11.04;83.76;102380.16;4936268;29;11553;-70
2021/10/29 04:57:38;;;;;;;;;48.50;41.25;;;;;11.03;83.66;102371.03;4936071;29;11575;-69
2021/10/29 05:00:07;;;;;;;;;81.50;66.50;;;;;11.02;83.57;102382.41;4919087;29;11550;-69
2021/10/29 05:02:35;;;;;;;;;84.75;68.50;;;;;11.03;83.52;102389.59;4935898;29;11587;-69
2021/10/29 05:05:06;;;;;;;;;81.50;65.75;;;;;11.03;83.46;102389.59;4934545;29;11581;-69
2021/10/29 05:07:47;;;;;;;;;79.50;64.50;;;;;11.00;83.80;102392.97;4932287;29;11571;-70
2021/10/29 05:10:15;;;;;;;;;81.00;62.75;;;;;10.95;84.09;102393.84;4932198;29;11598;-69
2021/10/29 05:12:49;;;;;;;;;81.25;65.75;;;;;11.07;84.00;102408.13;4918252;29;11652;-69
2021/10/29 05:15:19;;;;;;;;;85.50;73.00;;;;;11.15;83.68;102406.66;4933529;29;11576;-70
2021/10/29 05:18:01;;;;;;;;;89.75;73.50;;;;;11.10;83.74;102413.06;4933512;29;11594;-70
2021/10/29 05:20:57;;;;;;;;;101.25;83.50;;;;;11.23;83.30;102419.88;4920136;29;11568;-70
2021/10/29 05:23:40;;;;;;;;;90.75;79.50;;;;;11.30;83.33;102425.88;4933206;29;11596;-70
2021/10/29 05:26:11;;;;;;;;;79.50;63.00;;;;;11.34;83.36;102423.34;4933444;29;11632;-70
2021/10/29 05:28:41;;;;;;;;;83.50;71.25;;;;;11.44;83.04;102430.72;4934604;29;11652;-70
2021/10/29 05:31:09;;;;;;;;;82.25;64.75;;;;;11.47;82.91;102450.34;4935667;29;11578;-71
2021/10/29 05:34:05;;;;;;;;;75.00;60.25;;;;;11.49;83.22;102452.81;4933652;29;11581;-70
2021/10/29 05:36:38;;;;;;;;;70.75;56.25;;;;;11.53;83.09;102451.94;4934332;29;11665;-71
2021/10/29 05:39:34;;;;;;;;;69.75;56.00;;;;;11.47;83.53;102452.28;4932765;29;12364;-71
2021/10/29 05:42:02;;;;;;;;;67.50;53.00;;;;;11.47;83.66;102455.06;4937932;29;11576;-71
2021/10/29 05:44:59;;;;;;;;;73.25;57.75;;;;;11.49;83.72;102461.94;4922193;29;11573;-73
2021/10/29 05:47:29;;;;;;;;;58.25;47.75;;;;;11.51;84.00;102467.22;4937879;29;11581;-70
2021/10/29 05:50:12;;;;;;;;;62.50;52.00;;;;;11.59;83.44;102475.72;4937560;29;11563;-70
2021/10/29 05:53:05;;;;;;;;;69.50;54.50;;;;;11.62;83.49;102482.59;4924136;29;11559;-69
2021/10/29 05:55:47;;;;;;;;;69.25;56.75;;;;;11.67;83.42;102471.47;4921888;29;11564;-70
2021/10/29 05:58:43;;;;;;;;;58.25;50.25;;;;;11.52;84.46;102482.72;4937626;29;11644;-71
2021/10/29 06:01:42;;;;;;;;;59.75;51.00;;;;;11.53;83.96;102484.38;4937184;29;11544;-69
2021/10/29 06:04:38;;;;;;;;;57.00;47.50;;;;;11.42;84.73;102475.31;4937436;29;11563;-69
2021/10/29 06:07:35;;;;;;;;;60.50;50.50;;;;;11.43;84.55;102478.94;4935390;29;11565;-68
2021/10/29 06:10:31;;;;;;;;;56.00;47.75;;;;;11.34;85.23;102487.03;4923703;29;11488;-70
2021/10/29 06:13:27;;;;;;;;;61.00;50.50;;;;;11.33;85.13;102482.63;4937702;29;11523;-69
2021/10/29 06:16:23;;;;;;;;;52.00;43.75;;;;;11.60;84.38;102482.06;4937131;29;11548;-69
2021/10/29 06:19:18;;;;;;;;;55.75;46.75;;;;;11.61;84.51;102484.56;4924788;29;11497;-69
2021/10/29 06:22:20;;;;;;;;;57.00;47.75;;;;;11.65;84.19;102485.63;4937641;29;11525;-69
2021/10/29 06:25:20;;;;;;;;;58.50;46.75;;;;;11.90;83.41;102484.53;4936998;29;11509;-70
2021/10/29 06:28:28;;;;;;;;;51.00;43.25;;;;;11.76;83.68;102482.72;4936304;29;11499;-69
2021/10/29 06:31:24;;;;;;;;;47.25;41.50;;;;;11.84;83.84;102493.19;4937382;29;11596;-69
2021/10/29 06:34:20;;;;;;;;;52.50;41.50;;;;;11.91;83.29;102497.25;4918357;29;11504;-68
2021/10/29 06:37:17;;;;;;;;;46.00;39.00;;;;;11.98;83.32;102498.84;4906290;29;11540;-68
2021/10/29 06:39:58;;;;;;;;;47.25;41.25;;;;;12.04;83.07;102503.19;4936590;29;11557;-69
2021/10/29 06:42:34;;;;;;;;;38.75;36.00;;;;;12.03;82.55;102499.59;4938448;29;11488;-69
2021/10/29 07:41:51;;;;;;;;;67.25;55.25;;;;;12.75;78.88;102539.13;4927407;29;11313;-70
2021/10/29 07:44:34;;;;;;;;;46.75;41.25;;;;;12.68;78.67;102533.09;4935923;29;11606;-69
2021/10/29 07:47:30;;;;;;;;;47.00;39.75;;;;;12.73;78.50;102540.56;4934903;29;11225;-70
2021/10/29 07:50:15;;;;;;;;;47.75;41.00;;;;;12.85;78.01;102542.84;4935699;29;11236;-70
2021/10/29 07:53:11;;;;;;;;;58.00;48.25;;;;;12.87;77.61;102541.41;4934951;29;11506;-69
2021/10/29 07:55:40;;;;;;;;;55.25;44.50;;;;;12.76;77.85;102534.38;4934783;29;11700;-70
2021/10/29 07:58:09;;;;;;;;;50.75;42.75;;;;;12.95;77.33;102531.56;4935825;29;11782;-69
2021/10/29 08:01:04;;;;;;;;;52.25;44.75;;;;;12.76;77.64;102539.94;4916563;29;11569;-70
2021/10/29 08:04:00;;;;;;;;;62.50;51.25;;;;;12.83;77.34;102537.59;4916871;29;12277;-70
2021/10/29 08:06:56;;;;;;;;;56.25;48.25;;;;;13.32;75.61;102533.47;4916687;29;11552;-70
2021/10/29 08:09:51;;;;;;;;;53.00;42.75;;;;;13.31;75.57;102535.44;4916377;29;11501;-70
2021/10/29 08:12:34;;;;;;;;;57.25;48.75;;;;;13.46;74.39;102539.09;4919741;29;11495;-70
2021/10/29 08:15:30;;;;;;;;;53.50;45.50;;;;;12.92;76.60;102544.13;4934910;29;12244;-69
2021/10/29 08:18:40;;;;;;;;;59.00;47.25;;;;;13.16;75.72;102555.13;4926347;29;11639;-70
2021/10/29 08:21:33;;;;;;;;;49.50;42.25;;;;;13.60;74.50;102545.50;4936380;29;11613;-70
2021/10/29 08:24:21;;;;;;;;;42.75;38.00;;;;;13.88;73.95;102544.41;4936122;29;11155;-70
2021/10/29 08:27:17;;;;;;;;;44.75;39.75;;;;;14.13;72.71;102554.19;4936258;29;11082;-69
2021/10/29 08:30:12;;;;;;;;;48.75;42.25;;;;;14.28;71.85;102561.38;4929092;29;10963;-69
2021/10/29 08:32:42;;;;;;;;;42.75;38.00;;;;;14.20;71.37;102559.34;4932173;29;10803;-69
2021/10/29 08:35:38;;;;;;;;;39.50;36.50;;;;;14.04;71.47;102556.03;4933381;29;10734;-69
2021/10/29 08:38:34;;;;;;;;;39.75;36.50;;;;;14.14;71.24;102561.38;4923246;29;10527;-70
2021/10/29 08:41:29;;;;;;;;;44.75;39.25;;;;;14.45;70.68;102561.59;4934692;29;10679;-70
2021/10/29 08:44:27;;;;;;;;;47.75;40.25;;;;;14.36;70.55;102566.22;4922790;29;10861;-70
2021/10/29 08:46:55;;;;;;;;;37.00;34.50;;;;;14.06;70.74;102553.78;4936362;29;10764;-70
2021/10/29 08:49:51;;;;;;;;;41.25;37.75;;;;;14.12;70.92;102563.66;4934947;29;10761;-70
2021/10/29 08:52:33;;;;;;;;;40.50;36.75;;;;;14.36;70.23;102562.63;4932498;29;11458;-70
2021/10/29 08:55:31;;;;;;;;;37.50;35.50;;;;;14.52;69.66;102555.59;4903593;29;10388;-69
2021/10/29 08:58:01;;;;;;;;;40.50;37.50;;;;;14.46;69.64;102560.47;4934489;29;10350;-70
2021/10/29 09:00:44;;;;;;;;;52.25;40.75;;;;;14.54;69.30;102560.84;4932399;29;10697;-70
2021/10/29 09:03:39;;;;;;;;;47.75;39.75;;;;;14.64;68.72;102558.66;4919081;29;11378;-70
2021/10/29 09:09:05;;;;;;;;;36.50;35.00;;;;;14.63;68.51;102567.31;4934825;29;10524;-70
2021/10/29 09:11:52;;;;;;;;;37.00;34.75;;;;;14.73;68.52;102572.69;4932245;29;11172;-70
2021/10/29 09:31:35;;;;;;;;;28.50;28.50;;;;;15.14;65.94;102561.38;4933704;29;10165;-70
2021/10/29 09:34:06;;;;;;;;;35.00;32.25;;;;;15.22;65.90;102555.03;4932723;29;10023;-69
2021/10/29 09:36:43;;;;;;;;;29.75;28.00;;;;;15.08;65.52;102565.44;4914766;29;9824;-72
2021/10/29 09:39:15;;;;;;;;;29.75;29.75;;;;;15.19;65.82;102566.03;4884364;29;9982;-72
2021/10/29 09:41:44;;;;;;;;;17.00;17.00;;;;;14.70;65.29;102565.75;4900129;29;9982;-70
2021/10/29 09:44:44;;;;;;;;;24.00;24.00;;;;;14.86;65.27;102559.84;4916311;29;9644;-68
2021/10/29 09:47:17;;;;;;;;;26.75;25.75;;;;;15.11;64.69;102570.38;4902492;29;10068;-69
2021/10/29 09:50:24;;;;;;;;;27.75;27.75;;;;;15.19;64.58;102568.81;4934409;29;9411;-69
2021/10/29 09:55:55;;;;;;;;;31.00;30.50;;;;;15.20;64.79;102571.28;4917980;29;10107;-70
2021/10/29 09:58:40;;;;;;;;;27.00;24.50;;;;;15.30;64.06;102570.19;4928154;29;9648;-69
2021/10/29 10:01:09;;;;;;;;;24.75;24.75;;;;;15.81;62.19;102566.91;4885003;29;9710;-69
2021/10/29 10:04:06;;;;;;;;;27.50;26.00;;;;;16.29;60.42;102580.06;4902573;29;9595;-69
2021/10/29 10:07:02;;;;;;;;;25.25;25.25;;;;;16.09;60.00;102578.66;4914454;29;9702;-69
2021/10/29 10:09:59;;;;;;;;;28.00;28.00;;;;;16.21;60.11;102580.03;4915808;29;9493;-70
2021/10/29 10:12:43;;;;;;;;;53.25;39.00;;;;;16.72;58.75;102582.16;4885483;29;9575;-70
2021/10/29 10:15:40;;;;;;;;;22.33;22.33;;;;;16.57;57.97;102588.19;4902949;29;9700;-69
2021/10/29 10:18:08;;;;;;;;;32.00;29.67;;;;;16.32;58.78;102576.59;4885624;29;9284;-70
2021/10/29 10:20:36;;;;;;;;;33.00;31.00;;;;;16.16;58.90;102577.38;4916018;29;9363;-70
2021/10/29 10:23:39;;;;;;;;;23.00;23.00;;;;;16.08;58.40;102576.19;4916260;29;9320;-70
2021/10/29 10:41:06;;;;;;;;;28.00;27.67;;;;;17.82;54.23;102561.13;4932692;29;9044;-70
2021/10/29 10:43:44;;;;;;;;;29.00;29.00;;;;;17.34;54.62;102564.22;4937564;29;9088;-70
2021/10/29 10:46:19;;;;;;;;;30.33;30.33;;;;;16.88;55.88;102572.13;4936587;29;9173;-70
2021/10/29 10:51:25;;;;;;;;;28.00;28.00;;;;;17.18;55.23;102555.50;4902182;29;9225;-73
2021/10/29 10:54:06;;;;;;;;;31.00;29.33;;;;;17.51;54.29;102561.38;4923393;29;9396;-70
2021/10/29 11:00:31;;;;;;;;;23.75;23.75;;;;;17.59;53.97;102571.72;4937706;29;9116;-70
2021/10/29 11:10:11;;;;;;;;;26.33;26.33;;;;;18.08;52.08;102554.59;4917713;29;8923;-70
2021/10/29 11:12:45;;;;;;;;;28.00;28.00;;;;;18.26;52.39;102550.56;4936806;29;9102;-70
2021/10/29 11:15:40;;;;;;;;;32.00;31.75;;;;;17.93;52.91;102544.78;4932343;29;8873;-70
2021/10/29 11:18:13;;;;;;;;;28.75;28.75;;;;;17.74;54.13;102546.00;4923730;29;8862;-68
2021/10/29 11:21:03;;;;;;;;;28.25;28.25;;;;;18.00;52.81;102557.09;4937115;29;8885;-70
2021/10/29 11:23:34;;;;;;;;;29.33;29.33;;;;;18.28;51.53;102559.44;4937953;29;8941;-70
2021/10/29 11:26:36;;;;;;;;;32.00;29.75;;;;;18.51;51.37;102557.97;4936578;29;9063;-70
2021/10/29 11:29:06;;;;;;;;;25.50;24.25;;;;;18.28;51.22;102560.25;4936867;29;8863;-71
2021/10/29 11:31:51;;;;;;;;;21.00;21.00;;;;;18.23;51.06;102557.63;4916886;29;8862;-71
2021/10/29 11:34:19;;;;;;;;;19.75;18.25;;;;;18.55;49.77;102561.72;4918400;29;8977;-71
2021/10/29 11:36:53;;;;;;;;;27.50;27.50;;;;;18.67;50.43;102560.19;4902030;29;8862;-70
2021/10/29 11:39:24;;;;;;;;;31.00;29.50;;;;;19.02;49.41;102550.34;4901377;29;8894;-71
2021/10/29 11:41:53;;;;;;;;;25.75;24.50;;;;;19.15;49.70;102554.00;4901539;29;8863;-71
2021/10/29 11:44:42;;;;;;;;;30.50;29.75;;;;;19.00;49.02;102560.25;4908465;29;8869;-71
2021/10/29 11:47:10;;;;;;;;;24.75;24.75;;;;;18.76;49.86;102560.94;4910312;29;8885;-70
2021/10/29 11:49:38;;;;;;;;;25.50;25.50;;;;;18.45;50.09;102564.09;4917937;29;8882;-70
2021/10/29 11:52:07;;;;;;;;;28.50;28.25;;;;;18.34;50.41;102560.88;4918121;29;8885;-71
2021/10/29 11:54:40;;;;;;;;;29.00;28.25;;;;;18.36;50.66;102564.16;4901131;29;8855;-71
2021/10/29 12:08:27;;;;;;;;;31.25;30.75;;;;;18.37;50.12;102563.00;4898993;29;9638;-72
2021/10/29 12:11:23;;;;;;;;;26.75;26.75;;;;;18.31;50.53;102564.34;4897947;29;8908;-72
2021/10/29 12:13:52;;;;;;;;;29.50;29.50;;;;;18.54;49.91;102567.66;4905114;29;9628;-72
2021/10/29 12:16:24;;;;;;;;;31.00;30.00;;;;;18.49;50.11;102568.69;4917302;29;8973;-71
2021/10/29 12:19:04;;;;;;;;;31.25;28.25;;;;;18.33;49.40;102570.44;4917328;29;8863;-71
2021/10/29 12:21:40;;;;;;;;;29.75;27.00;;;;;18.44;49.63;102574.47;4897048;29;8853;-70
2021/10/29 12:24:14;;;;;;;;;25.50;25.50;;;;;18.15;49.96;102568.88;4908302;29;8862;-71
2021/10/29 12:26:41;;;;;;;;;25.25;24.50;;;;;18.17;50.63;102573.00;4917749;29;8863;-72
2021/10/29 12:29:37;;;;;;;;;33.75;30.75;;;;;18.21;50.46;102578.75;4893478;29;8849;-71
2021/10/29 12:33:00;;;;;;;;;44.33;39.00;;;;;18.32;50.35;102578.00;4917197;29;8861;-70
2021/10/29 13:04:21;;;;;;;;;28.67;26.00;;;;;17.12;53.06;102599.59;4936245;29;9244;-71
2021/10/29 13:06:53;;;;;;;;;20.00;20.00;;;;;17.09;52.48;102591.84;4918630;29;10028;-70
2021/10/29 13:09:49;;;;;;;;;23.67;23.67;;;;;17.31;51.99;102590.84;4934893;29;9051;-71
2021/10/29 13:13:10;;;;;;;;;25.00;23.67;;;;;17.26;51.81;102593.00;4935761;29;9200;-70
2021/10/29 13:16:12;;;;;;;;;30.33;30.33;;;;;17.35;52.13;102593.81;4932505;29;9031;-69
2021/10/29 13:50:25;;;;;;;;;30.25;30.25;;;;;16.35;55.02;102595.50;4934890;29;9557;-70
2021/10/29 13:53:03;;;;;;;;;35.75;33.25;;;;;16.06;56.13;102584.91;4935701;29;9723;-71
2021/10/29 13:56:06;;;;;;;;;31.50;31.25;;;;;15.82;56.78;102593.66;4933789;29;9868;-71
2021/10/29 13:59:59;;;;;;;;;39.25;35.75;;;;;15.53;57.88;102594.13;4924906;29;9881;-71
2021/10/29 14:31:30;;;;;;;;;42.75;39.25;;;;;14.37;62.54;102606.00;4938162;29;10895;-71
2021/10/29 14:36:43;;;;;;;;;48.00;41.25;;;;;14.27;63.14;102601.50;4938167;29;11071;-70
2021/10/29 14:39:17;;;;;;;;;48.50;42.50;;;;;14.18;63.29;102598.63;4936994;29;10761;-72
2021/10/29 14:41:57;;;;;;;;;52.00;42.50;;;;;14.06;63.99;102606.63;4919388;29;10753;-71
2021/10/29 14:44:35;;;;;;;;;49.00;42.00;;;;;14.06;64.00;102611.38;4921161;29;11078;-71
2021/10/29 14:50:15;;;;;;;;;55.25;45.75;;;;;13.97;64.40;102608.47;4936895;29;11003;-71
2021/10/29 15:33:16;;;;;;;;;85.75;70.00;;;;;13.02;67.49;102648.69;4937303;29;11543;-72
2021/10/29 15:44:24;;;;;;;;;80.50;61.00;;;;;12.72;68.34;102647.16;4918414;29;11706;-74
2021/10/29 15:47:41;;;;;;;;;86.50;75.00;;;;;12.82;67.95;102655.38;4909474;29;11569;-73
2021/10/29 15:50:36;;;;;;;;;80.50;64.50;;;;;12.58;68.72;102651.81;4917226;29;11573;-73
2021/10/29 15:53:08;;;;;;;;;84.50;67.50;;;;;12.70;68.60;102652.19;4918321;29;11577;-72
2021/10/29 15:56:11;;;;;;;;;88.50;74.00;;;;;12.80;67.78;102664.00;4904332;29;11610;-72
2021/10/29 16:02:30;;;;;;;;;85.50;75.75;;;;;12.81;67.88;102670.38;4936407;29;11611;-72
2021/10/29 16:17:10;;;;;;;;;78.25;60.25;;;;;12.60;67.98;102668.97;4916645;29;11617;-71
2021/10/29 16:19:39;;;;;;;;;80.25;61.00;;;;;12.35;68.99;102670.94;4934209;29;11552;-72
2021/10/29 16:22:15;;;;;;;;;76.75;60.00;;;;;12.09;70.24;102659.28;4933377;29;11534;-72
2021/10/29 16:25:15;;;;;;;;;78.00;61.00;;;;;12.01;70.75;102672.97;4929851;29;11629;-72
2021/10/29 16:27:56;;;;;;;;;81.50;62.00;;;;;12.12;70.02;102671.75;4908388;29;11606;-72
2021/10/29 16:30:27;;;;;;;;;77.50;62.75;;;;;11.95;70.29;102675.78;4933211;29;11566;-72
2021/10/29 16:35:55;;;;;;;;;86.00;72.75;;;;;11.93;70.19;102685.50;4931854;29;12249;-71
2021/10/29 16:38:25;;;;;;;;;87.00;74.00;;;;;12.02;69.54;102689.31;4933999;29;11597;-72
2021/10/29 16:40:53;;;;;;;;;91.50;77.25;;;;;11.88;69.48;102686.38;4933867;29;11622;-71
2021/10/29 16:43:24;;;;;;;;;90.50;77.50;;;;;11.81;69.45;102694.22;4933503;29;11666;-72
2021/10/29 16:45:53;;;;;;;;;88.00;76.50;;;;;11.75;69.46;102700.91;4934481;29;11601;-70
2021/10/29 16:48:24;;;;;;;;;85.25;71.00;;;;;11.86;68.66;102698.88;4917886;29;11709;-72
2021/10/29 16:50:53;;;;;;;;;82.00;68.50;;;;;11.57;69.24;102698.81;4934703;29;11703;-71
2021/10/29 16:53:21;;;;;;;;;92.00;82.50;;;;;11.58;69.90;102709.63;4934122;29;11578;-70
2021/10/29 16:55:59;;;;;;;;;85.00;71.25;;;;;11.48;70.74;102706.09;4933825;29;11699;-71
2021/10/29 16:58:27;;;;;;;;;93.75;86.25;;;;;11.45;70.22;102704.72;4916476;29;11600;-71
2021/10/29 17:00:55;;;;;;;;;86.33;67.33;;;;;11.48;69.87;102701.38;4915625;29;12460;-70
2021/10/29 17:03:24;;;;;;;;;80.67;59.67;;;;;11.36;69.55;102698.97;4934574;29;11595;-71
2021/10/29 17:05:52;;;;;;;;;91.00;78.00;;;;;11.10;70.78;102697.47;4933452;29;11619;-72
2021/10/29 17:08:20;;;;;;;;;97.00;83.33;;;;;10.97;71.00;102703.66;4917048;29;11631;-71
2021/10/29 17:11:16;;;;;;;;;87.33;76.00;;;;;10.97;71.03;102698.94;4933207;29;11652;-72
2021/10/29 17:13:45;;;;;;;;;88.00;79.00;;;;;10.86;70.83;102698.16;4933876;29;8905;-71
2021/10/29 17:16:13;;;;;;;;;99.67;95.00;;;;;10.59;71.89;102700.50;4933018;28;8913;-71
2021/10/29 17:18:41;;;;;;;;;104.67;100.33;;;;;10.78;71.71;102697.91;4935207;29;8890;-71
2021/10/29 17:21:09;;;;;;;;;96.00;87.00;;;;;10.63;72.02;102704.34;4918880;29;8863;-71